Terminal Aerodrome Forecast
Issued by NWS

Home | Current Version | Previous Version | Text Only | Print | Product List | Glossary On
Versions: 1 2 3 4 5 6 7 8 9 10 11 12 13 14 15 16 17 18 19 20 21
983
FTUS43 KGRR 210540
TAFLAN
TAF
KLAN 210540Z 2106/2206 21017G24KT P6SM SCT250 WS020/21055KT
     FM211500 24016G23KT P6SM OVC050
     FM212000 27012G21KT P6SM OVC035
     FM220000 29008KT P6SM BKN050=

USA.gov is the U.S. government's official web portal to all federal, state and local government web resources and services.